Overview Statistics Trail Chart Weather Telemetry Raw packets
 

This is the latest recevied weather packets stored in our database for station/object KLEMETTI. If no packets are shown the sender has not sent any weather packets the latest 10 day(s).

<< 10 11 12 13 14 >>
Time Temp. Humidity Pressure Rain* Wind** Luminosity Snow
1788236672 15° C 96% 1003.7 hPa 0 mm - - -
1788235475 15° C 96% 1003.9 hPa 0 mm - - -
1788234273 15° C 96% 1003.9 hPa 0 mm - - -
1788228273 14.44° C 97% 1003.9 hPa 0 mm - - -
1788227073 14.44° C 97% 1003.9 hPa 0 mm - - -
1788225873 14.44° C 97% 1004 hPa 0 mm - - -
1788224674 14.44° C 96% 1004.2 hPa 0 mm - - -
1788223473 15° C 94% 1004.4 hPa 0 mm - - -
1788221073 15° C 94% 1004.5 hPa 0 mm - - -
1788219885 15.56° C 94% 1004.4 hPa 0 mm - - -
1788218675 15.56° C 95% 1004.4 hPa 0 mm - - -
1788216272 15.56° C 91% 1004.5 hPa 0 mm - - -
1788215073 15.56° C 91% 1004.5 hPa 0 mm - - -
1788212462 15.56° C 91% 1004.4 hPa 0 mm - - -
1788211473 16.11° C 89% 1004.3 hPa 0 mm - - -
1788210273 15.56° C 96% 1004.3 hPa 0 mm - - -
1787831049 20° C 48% 1027 hPa 0 mm - - -
1787829855 20° C 49% 1027.1 hPa 0 mm - - -
1787828646 20° C 50% 1027.2 hPa 0 mm - - -
1787827447 20° C 49% 1027.2 hPa 0 mm - - -
1787826246 19.44° C 52% 1027.3 hPa 0 mm - - -
1787825044 19.44° C 53% 1027.4 hPa 0 mm - - -
1787823848 18.89° C 54% 1027.4 hPa 0 mm - - -
1787822438 18.33° C 59% 1027.7 hPa 0 mm - - -
1787821445 18.33° C 58% 1027.8 hPa 0 mm - - -

* Rain latest hour (hover to see other rain measurements)
** Current wind speed in m/s (hover to see current wind gust speed)